createdAt,value
2018-01-20T00:00:28.201Z,1001.17
2018-01-20T00:01:28.191Z,1001.12
2018-01-20T00:02:28.171Z,1001.13
2018-01-20T00:03:28.180Z,1001.16
2018-01-20T00:04:28.163Z,1001.14
2018-01-20T00:05:28.131Z,1001.13
2018-01-20T00:06:28.122Z,1001.19
2018-01-20T00:07:28.112Z,1001.18
2018-01-20T00:08:28.091Z,1001.19
2018-01-20T00:09:28.093Z,1001.16
2018-01-20T00:10:28.106Z,1001.16
2018-01-20T00:11:28.052Z,1001.19
2018-01-20T00:12:28.041Z,1001.17
2018-01-20T00:13:28.031Z,1001.20
2018-01-20T00:14:28.017Z,1001.16
2018-01-20T00:15:28.005Z,1001.15
2018-01-20T00:16:27.986Z,1001.21
2018-01-20T00:17:27.976Z,1001.20
2018-01-20T00:18:27.963Z,1001.20
2018-01-20T00:19:27.961Z,1001.18
2018-01-20T00:20:27.945Z,1001.19
2018-01-20T00:21:27.925Z,1001.20
2018-01-20T00:22:27.914Z,1001.22
2018-01-20T00:23:27.913Z,1001.17
2018-01-20T00:24:27.898Z,1001.21
2018-01-20T00:25:27.890Z,1001.24
2018-01-20T00:26:27.876Z,1001.22
2018-01-20T00:27:27.848Z,1001.26
2018-01-20T00:28:27.839Z,1001.23
2018-01-20T00:29:27.822Z,1001.23
2018-01-20T00:30:27.808Z,1001.20
2018-01-20T00:31:27.801Z,1001.21
2018-01-20T00:32:27.796Z,1001.18
2018-01-20T00:33:27.787Z,1001.17
2018-01-20T00:34:27.761Z,1001.15
2018-01-20T00:35:27.746Z,1001.16
2018-01-20T00:36:27.733Z,1001.16
2018-01-20T00:37:27.717Z,1001.16
2018-01-20T00:38:27.711Z,1001.19
2018-01-20T00:39:27.709Z,1001.14
2018-01-20T00:40:27.682Z,1001.15
2018-01-20T00:41:27.670Z,1001.13
2018-01-20T00:42:27.655Z,1001.11
2018-01-20T00:43:27.645Z,1001.11
2018-01-20T00:44:27.643Z,1001.06
2018-01-20T00:45:27.621Z,1001.09
2018-01-20T00:46:27.661Z,1001.10
2018-01-20T00:47:27.602Z,1001.10
2018-01-20T00:48:27.581Z,1001.14
2018-01-20T00:49:27.571Z,1001.13
2018-01-20T00:50:27.556Z,1001.11
2018-01-20T00:51:27.536Z,1001.14
2018-01-20T00:52:27.539Z,1001.04
2018-01-20T00:53:27.524Z,1001.10
2018-01-20T00:54:27.528Z,1001.07
2018-01-20T00:55:27.488Z,1000.99
2018-01-20T00:56:27.480Z,1001.01
2018-01-20T00:57:27.468Z,1000.97
2018-01-20T00:58:27.451Z,1000.96
2018-01-20T00:59:27.459Z,1000.95
2018-01-20T01:00:27.420Z,1000.95
2018-01-20T01:01:27.419Z,1000.90
2018-01-20T01:02:27.398Z,1000.93
2018-01-20T01:03:27.388Z,1000.93
2018-01-20T01:04:27.371Z,1000.95
2018-01-20T01:05:27.388Z,1000.93
2018-01-20T01:06:27.380Z,1000.91
2018-01-20T01:07:27.338Z,1000.86
2018-01-20T01:08:27.323Z,1000.89
2018-01-20T01:09:27.321Z,1000.87
2018-01-20T01:10:27.300Z,1000.88
2018-01-20T01:11:27.295Z,1000.89
2018-01-20T01:12:27.284Z,1000.90
2018-01-20T01:13:27.259Z,1000.92
2018-01-20T01:14:27.243Z,1000.87
2018-01-20T01:15:27.234Z,1000.91
2018-01-20T01:16:27.222Z,1000.90
2018-01-20T01:17:27.208Z,1000.95
2018-01-20T01:18:27.191Z,1000.87
2018-01-20T01:19:27.178Z,1000.92
2018-01-20T01:20:27.167Z,1000.91
2018-01-20T01:21:27.172Z,1000.92
2018-01-20T01:22:27.144Z,1000.92
2018-01-20T01:23:27.138Z,1000.91
2018-01-20T01:24:27.118Z,1000.92
2018-01-20T01:25:27.108Z,1000.96
2018-01-20T01:26:27.101Z,1000.96
2018-01-20T01:27:27.084Z,1000.91
2018-01-20T01:28:27.068Z,1000.87
2018-01-20T01:29:27.061Z,1000.84
2018-01-20T01:30:27.039Z,1000.87
2018-01-20T01:31:27.032Z,1000.87
2018-01-20T01:32:27.018Z,1000.88
2018-01-20T01:33:27.023Z,1000.83
2018-01-20T01:34:27.002Z,1000.89
2018-01-20T01:35:26.990Z,1000.83
2018-01-20T01:36:26.966Z,1000.86
2018-01-20T01:37:26.961Z,1000.87
2018-01-20T01:38:26.941Z,1000.87
2018-01-20T01:39:26.937Z,1000.84
2018-01-20T01:40:26.942Z,1000.81
2018-01-20T01:41:26.926Z,1000.76
2018-01-20T01:42:26.903Z,1000.80
2018-01-20T01:43:26.876Z,1000.71
2018-01-20T01:44:26.864Z,1000.75
2018-01-20T01:45:26.853Z,1000.80
2018-01-20T01:46:26.836Z,1000.80
2018-01-20T01:47:26.829Z,1000.73
2018-01-20T01:48:26.817Z,1000.81
2018-01-20T01:49:26.826Z,1000.83
2018-01-20T01:50:26.788Z,1000.85
2018-01-20T01:51:26.771Z,1000.91
2018-01-20T01:52:26.762Z,1000.86
2018-01-20T01:53:26.744Z,1000.84
2018-01-20T01:54:26.750Z,1000.83
2018-01-20T01:55:26.724Z,1000.84
2018-01-20T01:56:26.717Z,1000.88
2018-01-20T01:57:26.708Z,1000.88
2018-01-20T01:58:26.688Z,1000.89
2018-01-20T01:59:26.670Z,1000.91
2018-01-20T02:00:26.655Z,1000.83
2018-01-20T02:01:26.647Z,1000.80
2018-01-20T02:02:26.637Z,1000.82
2018-01-20T02:03:26.621Z,1000.80
2018-01-20T02:04:26.620Z,1000.80
2018-01-20T02:05:26.596Z,1000.82
2018-01-20T02:06:26.593Z,1000.77
2018-01-20T02:07:26.572Z,1000.77
2018-01-20T02:08:26.593Z,1000.81
2018-01-20T02:09:26.572Z,1000.78
2018-01-20T02:10:26.543Z,1000.79
2018-01-20T02:11:26.540Z,1000.80
2018-01-20T02:12:26.505Z,1000.80
2018-01-20T02:13:26.505Z,1000.80
2018-01-20T02:14:26.479Z,1000.77
2018-01-20T02:15:26.526Z,1000.79
2018-01-20T02:16:26.455Z,1000.81
2018-01-20T02:17:26.473Z,1000.83
2018-01-20T02:18:26.447Z,1000.81
2018-01-20T02:19:26.414Z,1000.80
2018-01-20T02:20:26.404Z,1000.81
2018-01-20T02:21:26.393Z,1000.82
2018-01-20T02:22:26.387Z,1000.84
2018-01-20T02:23:26.366Z,1000.87
2018-01-20T02:24:26.352Z,1000.86
2018-01-20T02:25:26.352Z,1000.84
2018-01-20T02:26:26.326Z,1000.78
2018-01-20T02:27:26.317Z,1000.83
2018-01-20T02:28:26.303Z,1000.75
2018-01-20T02:29:26.289Z,1000.81
2018-01-20T02:30:26.275Z,1000.79
2018-01-20T02:31:26.276Z,1000.77
2018-01-20T02:32:26.270Z,1000.80
2018-01-20T02:33:26.242Z,1000.84
2018-01-20T02:34:26.227Z,1000.79
2018-01-20T02:35:26.214Z,1000.81
2018-01-20T02:36:26.217Z,1000.81
2018-01-20T02:37:26.193Z,1000.77
2018-01-20T02:38:26.182Z,1000.80
2018-01-20T02:39:26.174Z,1000.84
2018-01-20T02:40:26.148Z,1000.83
2018-01-20T02:41:26.138Z,1000.81
2018-01-20T02:42:26.136Z,1000.79
2018-01-20T02:43:26.115Z,1000.83
2018-01-20T02:44:26.124Z,1000.80
2018-01-20T02:45:26.090Z,1000.84
2018-01-20T02:46:26.072Z,1000.81
2018-01-20T02:47:26.056Z,1000.84
2018-01-20T02:48:26.048Z,1000.87
2018-01-20T02:49:26.034Z,1000.84
2018-01-20T02:50:26.024Z,1000.86
2018-01-20T02:51:26.017Z,1000.87
2018-01-20T02:52:25.999Z,1000.85
2018-01-20T02:53:25.987Z,1000.89
2018-01-20T02:54:25.975Z,1000.83
2018-01-20T02:55:25.955Z,1000.86
2018-01-20T02:56:25.944Z,1000.88
2018-01-20T02:57:25.945Z,1000.90
2018-01-20T02:58:25.923Z,1000.85
2018-01-20T02:59:25.920Z,1000.82
2018-01-20T03:00:25.895Z,1000.87
2018-01-20T03:01:25.887Z,1000.82
2018-01-20T03:02:25.868Z,1000.81
2018-01-20T03:03:25.855Z,1000.82
2018-01-20T03:04:25.845Z,1000.80
2018-01-20T03:05:25.837Z,1000.78
2018-01-20T03:06:25.818Z,1000.80
2018-01-20T03:07:25.802Z,1000.79
2018-01-20T03:08:25.804Z,1000.72
2018-01-20T03:09:25.821Z,1000.67
2018-01-20T03:10:25.770Z,1000.68
2018-01-20T03:11:25.752Z,1000.67
2018-01-20T03:12:25.749Z,1000.62
2018-01-20T03:13:25.734Z,1000.59
2018-01-20T03:14:25.714Z,1000.62
2018-01-20T03:15:25.704Z,1000.63
2018-01-20T03:16:25.685Z,1000.56
2018-01-20T03:17:25.679Z,1000.60
2018-01-20T03:18:25.669Z,1000.56
2018-01-20T03:19:25.649Z,1000.62
2018-01-20T03:20:25.643Z,1000.60
2018-01-20T03:21:25.627Z,1000.63
2018-01-20T03:22:25.614Z,1000.63
2018-01-20T03:23:25.600Z,1000.58
2018-01-20T03:24:25.592Z,1000.56
2018-01-20T03:25:25.586Z,1000.56
2018-01-20T03:26:25.562Z,1000.54
2018-01-20T03:27:25.548Z,1000.54
2018-01-20T03:28:25.539Z,1000.49
2018-01-20T03:29:25.528Z,1000.49
2018-01-20T03:30:25.512Z,1000.49
2018-01-20T03:31:25.500Z,1000.50
2018-01-20T03:32:25.488Z,1000.47
2018-01-20T03:33:25.478Z,1000.49
2018-01-20T03:34:25.460Z,1000.41
2018-01-20T03:35:25.448Z,1000.38
2018-01-20T03:36:25.437Z,1000.37
2018-01-20T03:37:25.423Z,1000.35
2018-01-20T03:38:25.413Z,1000.36
2018-01-20T03:39:25.399Z,1000.41
2018-01-20T03:40:25.388Z,1000.40
2018-01-20T03:41:25.370Z,1000.31
2018-01-20T03:42:25.360Z,1000.35
2018-01-20T03:43:25.349Z,1000.29
2018-01-20T03:44:25.332Z,1000.33
2018-01-20T03:45:25.336Z,1000.30
2018-01-20T03:46:25.349Z,1000.30
2018-01-20T03:47:25.302Z,1000.27
2018-01-20T03:48:25.283Z,1000.24
2018-01-20T03:49:25.275Z,1000.29
2018-01-20T03:50:25.258Z,1000.23
2018-01-20T03:51:25.243Z,1000.23
2018-01-20T03:52:25.232Z,1000.27
2018-01-20T03:53:25.235Z,1000.25
2018-01-20T03:54:25.210Z,1000.23
2018-01-20T03:55:25.196Z,1000.25
2018-01-20T03:56:25.181Z,1000.25
2018-01-20T03:57:25.169Z,1000.24
2018-01-20T03:58:25.162Z,1000.25
2018-01-20T03:59:25.144Z,1000.22
2018-01-20T04:00:25.137Z,1000.22
2018-01-20T04:01:25.213Z,1000.20
2018-01-20T04:02:25.105Z,1000.21
2018-01-20T04:03:25.090Z,1000.19
2018-01-20T04:04:25.085Z,1000.16
2018-01-20T04:05:25.071Z,1000.18
2018-01-20T04:06:25.059Z,1000.11
2018-01-20T04:07:25.055Z,1000.08
2018-01-20T04:08:25.038Z,1000.10
2018-01-20T04:09:25.026Z,1000.08
2018-01-20T04:10:25.003Z,1000.04
2018-01-20T04:11:24.994Z,1000.01
2018-01-20T04:12:24.974Z,1000.03
2018-01-20T04:13:24.987Z,1000.00
2018-01-20T04:14:24.953Z,999.99
2018-01-20T04:15:24.956Z,1000.04
2018-01-20T04:16:24.927Z,1000.04
2018-01-20T04:17:24.912Z,1000.03
2018-01-20T04:18:24.904Z,1000.00
2018-01-20T04:19:24.884Z,1000.02
2018-01-20T04:20:24.875Z,999.95
2018-01-20T04:21:24.862Z,1000.01
2018-01-20T04:22:24.850Z,999.98
2018-01-20T04:23:24.836Z,999.99
2018-01-20T04:24:24.830Z,1000.05
2018-01-20T04:25:24.812Z,1000.03
2018-01-20T04:26:24.797Z,999.99
2018-01-20T04:27:24.789Z,999.96
2018-01-20T04:28:24.776Z,999.92
2018-01-20T04:29:24.766Z,999.94
2018-01-20T04:30:24.772Z,999.97
2018-01-20T04:31:24.744Z,999.94
2018-01-20T04:32:24.727Z,999.87
2018-01-20T04:33:24.707Z,999.92
2018-01-20T04:34:24.698Z,999.89
2018-01-20T04:35:24.682Z,999.89
2018-01-20T04:36:24.680Z,999.90
2018-01-20T04:37:24.662Z,999.92
2018-01-20T04:38:24.645Z,999.91
2018-01-20T04:39:24.637Z,999.87
2018-01-20T04:40:24.623Z,999.89
2018-01-20T04:41:24.619Z,999.87
2018-01-20T04:42:24.599Z,999.82
2018-01-20T04:43:24.597Z,999.88
2018-01-20T04:44:24.567Z,999.83
2018-01-20T04:45:24.558Z,999.76
2018-01-20T04:46:24.546Z,999.77
2018-01-20T04:47:24.526Z,999.81
2018-01-20T04:48:24.528Z,999.77
2018-01-20T04:49:24.509Z,999.83
2018-01-20T04:50:24.489Z,999.80
2018-01-20T04:51:24.485Z,999.75
2018-01-20T04:53:57.733Z,999.77
2018-01-20T04:54:57.691Z,999.77
2018-01-20T04:56:51.455Z,999.72
2018-01-20T04:57:51.401Z,999.70
2018-01-20T04:59:45.142Z,999.75
2018-01-20T05:00:45.124Z,999.72
2018-01-20T05:02:38.860Z,999.72
2018-01-20T05:03:38.813Z,999.70
2018-01-20T05:04:38.800Z,999.71
2018-01-20T05:05:38.794Z,999.70
2018-01-20T05:06:38.777Z,999.72
2018-01-20T05:07:38.767Z,999.68
2018-01-20T05:08:38.753Z,999.69
2018-01-20T05:09:38.739Z,999.63
2018-01-20T05:10:38.728Z,999.62
2018-01-20T05:11:38.716Z,999.66
2018-01-20T05:12:38.705Z,999.59
2018-01-20T05:13:38.688Z,999.57
2018-01-20T05:14:38.679Z,999.60
2018-01-20T05:15:38.665Z,999.61
2018-01-20T05:16:38.650Z,999.57
2018-01-20T05:17:38.640Z,999.54
2018-01-20T05:18:38.639Z,999.52
2018-01-20T05:19:38.618Z,999.57
2018-01-20T05:20:38.600Z,999.55
2018-01-20T05:21:38.588Z,999.49
2018-01-20T05:22:38.598Z,999.55
2018-01-20T05:23:38.558Z,999.49
2018-01-20T05:24:38.551Z,999.49
2018-01-20T05:25:38.541Z,999.51
2018-01-20T05:26:38.529Z,999.50
2018-01-20T05:27:38.525Z,999.52
2018-01-20T05:28:38.496Z,999.53
2018-01-20T05:29:38.485Z,999.53
2018-01-20T05:30:38.474Z,999.53
2018-01-20T05:31:38.462Z,999.50
2018-01-20T05:32:38.451Z,999.52
2018-01-20T05:33:38.437Z,999.51
2018-01-20T05:34:38.432Z,999.55
2018-01-20T05:35:38.457Z,999.46
2018-01-20T05:36:38.441Z,999.49
2018-01-20T05:37:38.385Z,999.50
2018-01-20T05:38:38.373Z,999.51
2018-01-20T05:39:38.371Z,999.46
2018-01-20T05:40:38.348Z,999.47
2018-01-20T05:41:38.333Z,999.47
2018-01-20T05:42:38.321Z,999.44
2018-01-20T05:43:38.306Z,999.49
2018-01-20T05:44:38.296Z,999.48
2018-01-20T05:45:38.284Z,999.47
2018-01-20T05:46:38.267Z,999.45
2018-01-20T05:47:38.260Z,999.37
2018-01-20T05:48:38.244Z,999.43
2018-01-20T05:49:38.228Z,999.48
2018-01-20T05:50:38.220Z,999.43
2018-01-20T05:51:38.213Z,999.41
2018-01-20T05:52:38.197Z,999.49
2018-01-20T05:53:38.184Z,999.54
2018-01-20T05:54:38.165Z,999.45
2018-01-20T05:55:38.157Z,999.49
2018-01-20T05:56:38.140Z,999.45
2018-01-20T05:57:38.152Z,999.45
2018-01-20T05:58:38.118Z,999.50
2018-01-20T05:59:38.106Z,999.48
2018-01-20T06:00:38.096Z,999.45
2018-01-20T06:01:38.082Z,999.45
2018-01-20T06:02:38.065Z,999.44
2018-01-20T06:03:38.053Z,999.49
2018-01-20T06:04:38.041Z,999.49
2018-01-20T06:05:38.036Z,999.52
2018-01-20T06:06:38.018Z,999.47
2018-01-20T06:07:38.007Z,999.47
2018-01-20T06:08:37.994Z,999.47
2018-01-20T06:09:37.985Z,999.44
2018-01-20T06:10:37.966Z,999.47
2018-01-20T06:11:37.958Z,999.47
2018-01-20T06:12:37.943Z,999.46
2018-01-20T06:13:37.924Z,999.43
2018-01-20T06:14:37.915Z,999.44
2018-01-20T06:15:37.905Z,999.42
2018-01-20T06:16:37.901Z,999.42
2018-01-20T06:17:37.877Z,999.41
2018-01-20T06:18:37.868Z,999.41
2018-01-20T06:19:37.854Z,999.43
2018-01-20T06:20:37.836Z,999.40
2018-01-20T06:21:37.830Z,999.41
2018-01-20T06:22:37.815Z,999.35
2018-01-20T06:23:37.804Z,999.38
2018-01-20T06:24:37.786Z,999.37
2018-01-20T06:25:37.775Z,999.35
2018-01-20T06:26:37.773Z,999.33
2018-01-20T06:27:37.757Z,999.32
2018-01-20T06:28:37.742Z,999.40
2018-01-20T06:29:37.749Z,999.38
2018-01-20T06:30:37.726Z,999.36
2018-01-20T06:31:37.701Z,999.35
2018-01-20T06:32:37.693Z,999.32
2018-01-20T06:33:37.677Z,999.31
2018-01-20T06:34:37.661Z,999.36
2018-01-20T06:35:37.655Z,999.32
2018-01-20T06:36:37.662Z,999.33
2018-01-20T06:37:37.626Z,999.35
2018-01-20T06:38:37.616Z,999.31
2018-01-20T06:39:37.607Z,999.30
2018-01-20T06:40:37.587Z,999.33
2018-01-20T06:41:37.577Z,999.33
2018-01-20T06:42:37.560Z,999.35
2018-01-20T06:43:37.548Z,999.30
2018-01-20T06:44:37.585Z,999.35
2018-01-20T06:45:37.548Z,999.33
2018-01-20T06:46:37.513Z,999.37
2018-01-20T06:47:37.517Z,999.37
2018-01-20T06:48:37.500Z,999.40
2018-01-20T06:49:37.478Z,999.40
2018-01-20T06:50:37.465Z,999.30
2018-01-20T06:51:37.449Z,999.36
2018-01-20T06:52:37.449Z,999.30
2018-01-20T06:53:37.445Z,999.29
2018-01-20T06:54:37.414Z,999.28
2018-01-20T06:55:37.442Z,999.27
2018-01-20T06:56:37.391Z,999.28
2018-01-20T06:57:37.378Z,999.29
2018-01-20T06:58:37.377Z,999.22
2018-01-20T06:59:37.356Z,999.20
2018-01-20T07:00:37.340Z,999.25
2018-01-20T07:01:37.327Z,999.22
2018-01-20T07:02:37.325Z,999.19
2018-01-20T07:03:37.331Z,999.23
2018-01-20T07:04:37.289Z,999.16
2018-01-20T07:05:37.274Z,999.19
2018-01-20T07:06:37.271Z,999.16
2018-01-20T07:07:37.250Z,999.16
2018-01-20T07:08:37.240Z,999.13
2018-01-20T07:09:37.226Z,999.19
2018-01-20T07:10:37.215Z,999.19
2018-01-20T07:11:37.216Z,999.22
2018-01-20T07:12:37.191Z,999.18
2018-01-20T07:13:37.178Z,999.20
2018-01-20T07:14:37.164Z,999.23
2018-01-20T07:15:37.151Z,999.22
2018-01-20T07:16:37.140Z,999.24
2018-01-20T07:17:37.130Z,999.20
2018-01-20T07:18:37.113Z,999.22
2018-01-20T07:19:37.101Z,999.22
2018-01-20T07:20:37.092Z,999.20
2018-01-20T07:21:37.078Z,999.25
2018-01-20T07:22:37.064Z,999.24
2018-01-20T07:23:37.056Z,999.23
2018-01-20T07:24:37.041Z,999.21
2018-01-20T07:25:37.029Z,999.29
2018-01-20T07:26:37.031Z,999.27
2018-01-20T07:27:37.003Z,999.27
2018-01-20T07:28:36.989Z,999.22
2018-01-20T07:29:36.974Z,999.23
2018-01-20T07:30:36.965Z,999.22
2018-01-20T07:31:36.955Z,999.20
2018-01-20T07:32:36.938Z,999.16
2018-01-20T07:33:36.956Z,999.14
2018-01-20T07:34:36.919Z,999.15
2018-01-20T07:35:36.903Z,999.12
2018-01-20T07:36:36.898Z,999.12
2018-01-20T07:37:36.880Z,999.13
2018-01-20T07:38:36.867Z,999.11
2018-01-20T07:39:36.857Z,999.14
2018-01-20T07:40:36.840Z,999.11
2018-01-20T07:41:36.828Z,999.15
2018-01-20T07:42:36.821Z,999.17
2018-01-20T07:43:36.808Z,999.15
2018-01-20T07:44:36.795Z,999.18
2018-01-20T07:45:36.777Z,999.19
2018-01-20T07:46:36.764Z,999.16
2018-01-20T07:47:36.771Z,999.18
2018-01-20T07:48:36.742Z,999.16
2018-01-20T07:49:36.734Z,999.12
2018-01-20T07:50:36.715Z,999.10
2018-01-20T07:51:36.705Z,999.07
2018-01-20T07:52:36.811Z,999.01
2018-01-20T07:53:36.682Z,999.06
2018-01-20T07:54:36.682Z,998.99
2018-01-20T07:55:36.660Z,999.05
2018-01-20T07:56:36.642Z,999.03
2018-01-20T07:57:36.642Z,999.06
2018-01-20T07:58:36.624Z,998.99
2018-01-20T07:59:36.609Z,999.00
2018-01-20T08:00:36.595Z,999.03
2018-01-20T08:01:36.591Z,999.00
2018-01-20T08:02:36.572Z,999.00
2018-01-20T08:03:36.558Z,998.99
2018-01-20T08:04:36.547Z,998.96
2018-01-20T08:05:36.536Z,999.03
2018-01-20T08:06:36.535Z,998.98
2018-01-20T08:07:36.509Z,998.95
2018-01-20T08:08:36.503Z,998.93
2018-01-20T08:09:36.490Z,998.96
2018-01-20T08:10:36.530Z,998.93
2018-01-20T08:11:36.463Z,998.91
2018-01-20T08:12:36.490Z,998.92
2018-01-20T08:13:36.437Z,998.92
2018-01-20T08:14:36.445Z,998.88
2018-01-20T08:15:36.414Z,998.86
2018-01-20T08:16:36.402Z,998.88
2018-01-20T08:17:36.394Z,998.87
2018-01-20T08:18:36.376Z,998.92
2018-01-20T08:19:36.415Z,998.91
2018-01-20T08:20:36.350Z,998.94
2018-01-20T08:21:36.342Z,998.89
2018-01-20T08:22:36.328Z,998.89
2018-01-20T08:23:36.325Z,998.93
2018-01-20T08:24:36.304Z,998.94
2018-01-20T08:25:36.292Z,998.92
2018-01-20T08:26:36.279Z,998.97
2018-01-20T08:27:36.263Z,998.98
2018-01-20T08:28:36.263Z,998.96
2018-01-20T08:29:36.247Z,998.95
2018-01-20T08:30:36.233Z,998.97
2018-01-20T08:31:36.218Z,998.92
2018-01-20T08:32:36.206Z,998.91
2018-01-20T08:33:36.199Z,998.91
2018-01-20T08:34:36.279Z,998.91
2018-01-20T08:35:36.210Z,998.98
2018-01-20T08:36:36.165Z,999.00
2018-01-20T08:37:36.144Z,999.02
2018-01-20T08:38:36.152Z,998.99
2018-01-20T08:39:36.122Z,999.01
2018-01-20T08:40:36.121Z,999.01
2018-01-20T08:41:36.098Z,998.96
2018-01-20T08:42:36.094Z,999.00
2018-01-20T08:43:36.085Z,998.95
2018-01-20T08:44:36.064Z,998.92
2018-01-20T08:45:36.051Z,998.95
2018-01-20T08:46:36.046Z,998.94
2018-01-20T08:47:36.032Z,998.95
2018-01-20T08:48:36.026Z,998.97
2018-01-20T08:49:36.055Z,998.99
2018-01-20T08:50:36.007Z,998.94
2018-01-20T08:51:36.012Z,998.93
2018-01-20T08:52:35.972Z,998.93
2018-01-20T08:53:35.959Z,998.89
2018-01-20T08:54:35.948Z,998.88
2018-01-20T08:55:35.958Z,998.88
2018-01-20T08:56:35.937Z,998.84
2018-01-20T08:57:35.920Z,998.83
2018-01-20T08:58:35.920Z,998.85
2018-01-20T08:59:35.897Z,998.82
2018-01-20T09:00:35.901Z,998.79
2018-01-20T09:01:35.872Z,998.84
2018-01-20T09:02:35.870Z,998.78
2018-01-20T09:03:35.852Z,998.78
2018-01-20T09:04:35.840Z,998.75
2018-01-20T09:05:35.835Z,998.75
2018-01-20T09:06:35.821Z,998.75
2018-01-20T09:07:35.813Z,998.78
2018-01-20T09:08:35.798Z,998.78
2018-01-20T09:09:35.790Z,998.79
2018-01-20T09:10:35.780Z,998.77
2018-01-20T09:11:35.795Z,998.74
2018-01-20T09:12:35.772Z,998.73
2018-01-20T09:13:35.743Z,998.77
2018-01-20T09:14:35.728Z,998.74
2018-01-20T09:15:35.721Z,998.71
2018-01-20T09:16:35.707Z,998.74
2018-01-20T09:17:35.706Z,998.77
2018-01-20T09:18:35.732Z,998.72
2018-01-20T09:19:35.774Z,998.75
2018-01-20T09:20:35.663Z,998.69
2018-01-20T09:21:35.655Z,998.68
2018-01-20T09:22:35.645Z,998.72
2018-01-20T09:23:35.633Z,998.72
2018-01-20T09:24:35.625Z,998.68
2018-01-20T09:25:35.616Z,998.70
2018-01-20T09:26:35.598Z,998.67
2018-01-20T09:27:35.583Z,998.63
2018-01-20T09:28:35.576Z,998.65
2018-01-20T09:29:35.568Z,998.62
2018-01-20T09:30:35.555Z,998.62
2018-01-20T09:31:35.571Z,998.63
2018-01-20T09:32:35.531Z,998.61
2018-01-20T09:33:35.538Z,998.61
2018-01-20T09:34:35.531Z,998.57
2018-01-20T09:35:35.504Z,998.58
2018-01-20T09:36:35.498Z,998.63
2018-01-20T09:37:35.493Z,998.64
2018-01-20T09:38:35.474Z,998.55
2018-01-20T09:39:35.470Z,998.62
2018-01-20T09:40:35.465Z,998.59
2018-01-20T09:41:35.449Z,998.58
2018-01-20T09:42:35.461Z,998.54
2018-01-20T09:43:35.486Z,998.56
2018-01-20T09:44:35.930Z,998.52
2018-01-20T09:45:35.481Z,998.54
2018-01-20T09:46:35.407Z,998.51
2018-01-20T09:47:35.452Z,998.49
2018-01-20T09:48:35.432Z,998.45
2018-01-20T09:49:35.444Z,998.44
2018-01-20T09:50:35.538Z,998.48
2018-01-20T09:51:35.391Z,998.47
2018-01-20T09:52:35.363Z,998.45
2018-01-20T09:53:35.337Z,998.45
2018-01-20T09:54:35.379Z,998.41
2018-01-20T09:55:35.321Z,998.45
2018-01-20T09:56:35.325Z,998.42
2018-01-20T09:57:35.305Z,998.40
2018-01-20T09:58:35.294Z,998.38
2018-01-20T09:59:35.282Z,998.33
2018-01-20T10:00:35.276Z,998.39
2018-01-20T10:01:35.266Z,998.33
2018-01-20T10:02:35.255Z,998.28
2018-01-20T10:03:35.253Z,998.34
2018-01-20T10:04:35.240Z,998.26
2018-01-20T10:05:35.232Z,998.23
2018-01-20T10:06:35.237Z,998.23
2018-01-20T10:07:35.217Z,998.23
2018-01-20T10:08:35.222Z,998.22
2018-01-20T10:09:35.216Z,998.21
2018-01-20T10:10:35.185Z,998.23
2018-01-20T10:11:35.176Z,998.18
2018-01-20T10:12:35.186Z,998.18
2018-01-20T10:13:35.162Z,998.16
2018-01-20T10:14:35.185Z,998.14
2018-01-20T10:15:35.138Z,998.17
2018-01-20T10:16:35.163Z,998.18
2018-01-20T10:17:35.122Z,998.20
2018-01-20T10:18:35.117Z,998.14
2018-01-20T10:19:35.133Z,998.14
2018-01-20T10:20:35.093Z,998.13
2018-01-20T10:21:35.076Z,998.11
2018-01-20T10:22:35.071Z,998.06
2018-01-20T10:23:35.058Z,998.06
2018-01-20T10:24:35.049Z,998.01
2018-01-20T10:25:35.041Z,998.03
2018-01-20T10:26:35.039Z,998.02
2018-01-20T10:27:35.015Z,997.99
2018-01-20T10:28:35.009Z,997.98
2018-01-20T10:29:34.996Z,997.97
2018-01-20T10:30:34.987Z,997.99
2018-01-20T10:31:34.981Z,997.93
2018-01-20T10:32:34.971Z,997.97
2018-01-20T10:33:34.956Z,997.93
2018-01-20T10:34:34.942Z,997.92
2018-01-20T10:35:34.938Z,997.81
2018-01-20T10:36:34.929Z,997.85
2018-01-20T10:37:34.916Z,997.77
2018-01-20T10:38:34.903Z,997.79
2018-01-20T10:39:34.893Z,997.78
2018-01-20T10:40:34.903Z,997.74
2018-01-20T10:41:34.885Z,997.72
2018-01-20T10:42:34.869Z,997.76
2018-01-20T10:43:34.867Z,997.70
2018-01-20T10:44:34.846Z,997.66
2018-01-20T10:45:34.831Z,997.69
2018-01-20T10:46:34.822Z,997.72
2018-01-20T10:47:34.824Z,997.69
2018-01-20T10:48:34.817Z,997.70
2018-01-20T10:49:34.797Z,997.70
2018-01-20T10:50:34.793Z,997.64
2018-01-20T10:51:34.765Z,997.61
2018-01-20T10:52:34.770Z,997.59
2018-01-20T10:53:34.740Z,997.59
2018-01-20T10:54:34.731Z,997.57
2018-01-20T10:55:34.727Z,997.59
2018-01-20T10:56:34.716Z,997.56
2018-01-20T10:57:34.715Z,997.56
2018-01-20T10:58:34.692Z,997.55
2018-01-20T10:59:34.684Z,997.53
2018-01-20T11:00:34.669Z,997.54
2018-01-20T11:01:34.659Z,997.50
2018-01-20T11:02:34.650Z,997.48
2018-01-20T11:03:34.639Z,997.47
2018-01-20T11:04:34.628Z,997.46
2018-01-20T11:05:34.609Z,997.47
2018-01-20T11:06:34.604Z,997.45
2018-01-20T11:07:34.631Z,997.47
2018-01-20T11:08:34.588Z,997.47
2018-01-20T11:09:34.611Z,997.39
2018-01-20T11:10:34.570Z,997.37
2018-01-20T11:11:34.588Z,997.35
2018-01-20T11:12:34.610Z,997.38
2018-01-20T11:13:34.536Z,997.37
2018-01-20T11:14:34.629Z,997.32
2018-01-20T11:15:34.552Z,997.27
2018-01-20T11:16:34.628Z,997.25
2018-01-20T11:17:34.789Z,997.21
2018-01-20T11:18:34.574Z,997.22
2018-01-20T11:19:34.685Z,997.23
2018-01-20T11:20:34.554Z,997.25
2018-01-20T11:21:34.719Z,997.19
2018-01-20T11:22:34.562Z,997.13
2018-01-20T11:23:34.578Z,997.11
2018-01-20T11:24:34.551Z,997.07
2018-01-20T11:25:34.417Z,997.00
2018-01-20T11:26:34.416Z,997.04
2018-01-20T11:27:34.441Z,996.99
2018-01-20T11:28:34.461Z,997.01
2018-01-20T11:29:34.486Z,996.98
2018-01-20T11:30:34.366Z,996.96
2018-01-20T11:31:34.342Z,996.91
2018-01-20T11:32:34.338Z,996.88
2018-01-20T11:33:34.368Z,996.87
2018-01-20T11:34:34.343Z,996.84
2018-01-20T11:35:34.557Z,996.81
2018-01-20T11:36:34.331Z,996.80
2018-01-20T11:37:34.280Z,996.78
2018-01-20T11:38:34.306Z,996.79
2018-01-20T11:39:34.290Z,996.74
2018-01-20T11:40:34.250Z,996.76
2018-01-20T11:41:34.234Z,996.70
2018-01-20T11:42:34.216Z,996.73
2018-01-20T11:43:34.209Z,996.68
2018-01-20T11:44:34.204Z,996.65
2018-01-20T11:45:34.221Z,996.64
2018-01-20T11:46:34.182Z,996.61
2018-01-20T11:47:34.166Z,996.57
2018-01-20T11:48:34.162Z,996.63
2018-01-20T11:49:34.189Z,996.58
2018-01-20T11:50:34.129Z,996.59
2018-01-20T11:51:34.121Z,996.53
2018-01-20T11:52:34.116Z,996.49
2018-01-20T11:53:34.117Z,996.53
2018-01-20T11:54:34.124Z,996.45
2018-01-20T11:55:34.131Z,996.41
2018-01-20T11:56:34.079Z,996.38
2018-01-20T11:57:34.077Z,996.35
2018-01-20T11:58:34.084Z,996.34
2018-01-20T11:59:34.151Z,996.30
2018-01-20T12:00:34.033Z,996.34
2018-01-20T12:01:34.024Z,996.31
2018-01-20T12:02:34.012Z,996.30
2018-01-20T12:03:34.062Z,996.21
2018-01-20T12:04:34.010Z,996.22
2018-01-20T12:05:34.071Z,996.15
2018-01-20T12:06:33.974Z,996.14
2018-01-20T12:07:34.013Z,996.08
2018-01-20T12:08:34.028Z,996.07
2018-01-20T12:09:33.957Z,996.04
2018-01-20T12:10:33.952Z,995.97
2018-01-20T12:11:34.057Z,996.00
2018-01-20T12:12:36.610Z,995.96
2018-01-20T12:13:34.340Z,995.90
2018-01-20T12:14:36.519Z,995.99
2018-01-20T12:15:33.901Z,995.90
2018-01-20T12:16:33.872Z,995.87
2018-01-20T12:17:33.861Z,995.87
2018-01-20T12:18:33.886Z,995.88
2018-01-20T12:19:33.835Z,995.84
2018-01-20T12:20:33.822Z,995.84
2018-01-20T12:21:34.742Z,995.81
2018-01-20T12:22:33.795Z,995.82
2018-01-20T12:23:35.756Z,995.73
2018-01-20T12:24:35.477Z,995.77